Time;durP1;ratioP1;P1;durP2;ratioP2;P2;SDS_P1;SDS_P2;PMS_P1;PMS_P2;Temp;Humidity;BMP_temperature;BMP_pressure;BME280_temperature;BME280_humidity;BME280_pressure;Samples;Min_cycle;Max_cycle;Signal;HPM_P1;HPM_P2
2023/07/22 00:01:24;;;;;;;11.27;4.38;;;;;;;12.93;100.00;101252.50;4866710;29;20051;-80
2023/07/22 00:03:53;;;;;;;4.72;3.90;;;;;;;12.93;100.00;101256.88;4882393;29;20063;-80
2023/07/22 00:06:20;;;;;;;11.13;5.40;;;;;;;12.93;100.00;101260.44;4867095;29;20251;-80
2023/07/22 00:08:49;;;;;;;7.70;4.00;;;;;;;12.95;100.00;101255.13;4890255;29;20130;-80
2023/07/22 00:11:16;;;;;;;8.25;4.57;;;;;;;12.97;100.00;101245.44;4902938;29;20049;-81
2023/07/22 00:13:45;;;;;;;7.03;3.92;;;;;;;12.99;100.00;101247.19;4882269;29;20056;-81
2023/07/22 00:16:13;;;;;;;7.80;4.50;;;;;;;13.02;100.00;101256.88;4850943;29;20079;-80
2023/07/22 00:18:41;;;;;;;9.07;4.18;;;;;;;13.05;100.00;101246.31;4910295;29;20056;-81
2023/07/22 00:21:08;;;;;;;8.55;3.95;;;;;;;13.07;100.00;101244.53;4876977;29;20059;-81
2023/07/22 00:23:36;;;;;;;6.03;3.95;;;;;;;13.09;100.00;101237.50;4899802;29;20049;-82
2023/07/22 00:26:04;;;;;;;6.28;3.75;;;;;;;13.10;100.00;101239.25;4894663;29;20544;-80
2023/07/22 00:28:31;;;;;;;7.80;4.30;;;;;;;13.10;100.00;101244.56;4855422;29;20053;-79
2023/07/22 00:31:00;;;;;;;5.82;4.13;;;;;;;13.09;100.00;101241.91;4834399;29;20060;-80
2023/07/22 00:33:28;;;;;;;9.52;4.57;;;;;;;13.08;100.00;101243.69;4897059;29;20048;-80
2023/07/22 00:35:56;;;;;;;7.88;4.53;;;;;;;13.06;100.00;101232.19;4874281;29;20048;-80
2023/07/22 00:38:23;;;;;;;7.63;4.38;;;;;;;13.06;100.00;101241.03;4882230;29;20064;-80
2023/07/22 00:40:51;;;;;;;6.85;4.53;;;;;;;13.03;100.00;101235.72;4882913;29;20071;-80
2023/07/22 00:43:18;;;;;;;11.02;4.90;;;;;;;12.97;100.00;101232.22;4876882;29;20505;-80
2023/07/22 00:45:46;;;;;;;6.70;4.72;;;;;;;12.96;100.00;101241.03;4875499;29;20053;-81
2023/07/22 00:48:15;;;;;;;7.72;4.70;;;;;;;12.92;100.00;101239.28;4853835;29;20049;-80
2023/07/22 00:50:43;;;;;;;11.20;6.05;;;;;;;12.86;100.00;101248.09;4845638;29;20063;-80
2023/07/22 00:53:11;;;;;;;13.18;5.18;;;;;;;12.83;100.00;101235.72;4875187;29;20077;-80
2023/07/22 00:55:42;;;;;;;8.68;4.55;;;;;;;12.78;100.00;101234.88;4894866;29;20052;-79
2023/07/22 00:58:10;;;;;;;18.17;4.78;;;;;;;12.75;100.00;101242.78;4889900;29;20070;-80
2023/07/22 01:00:38;;;;;;;7.15;4.40;;;;;;;12.69;100.00;101242.78;4875556;29;20064;-80
2023/07/22 01:03:07;;;;;;;9.38;5.10;;;;;;;12.68;100.00;101243.66;4834871;29;20375;-80
2023/07/22 01:05:36;;;;;;;5.97;4.63;;;;;;;12.63;100.00;101241.03;4862412;29;20037;-79
2023/07/22 01:08:04;;;;;;;10.77;4.75;;;;;;;12.60;100.00;101248.06;4868175;29;20053;-80
2023/07/22 01:10:32;;;;;;;7.32;4.13;;;;;;;12.55;100.00;101253.34;4904945;29;20063;-80
2023/07/22 01:12:59;;;;;;;9.07;4.32;;;;;;;12.55;100.00;101249.81;4872467;29;20052;-80
2023/07/22 01:15:28;;;;;;;7.53;4.78;;;;;;;12.54;100.00;101248.06;4880624;29;20045;-80
2023/07/22 01:18:01;;;;;;;8.27;4.03;;;;;;;12.52;100.00;101248.06;4822306;29;20044;-80
2023/07/22 01:20:31;;;;;;;11.38;4.82;;;;;;;12.50;100.00;101251.59;4877839;29;20064;-80
2023/07/22 01:22:59;;;;;;;6.78;4.10;;;;;;;12.46;100.00;101251.56;4875791;29;20069;-80
2023/07/22 01:25:28;;;;;;;6.10;4.00;;;;;;;12.46;100.00;101248.06;4875001;29;20419;-80
2023/07/22 01:27:57;;;;;;;9.70;4.30;;;;;;;12.45;100.00;101249.78;4860782;29;20048;-82
2023/07/22 01:30:27;;;;;;;8.77;4.13;;;;;;;12.45;100.00;101244.50;4905015;29;20044;-80
2023/07/22 01:32:55;;;;;;;5.95;3.90;;;;;;;12.45;100.00;101241.84;4882264;29;20078;-80
2023/07/22 01:35:22;;;;;;;9.07;3.80;;;;;;;12.41;100.00;101245.38;4856390;29;20040;-80
2023/07/22 01:37:51;;;;;;;6.68;3.72;;;;;;;12.40;100.00;101245.38;4874713;29;20065;-80
2023/07/22 01:40:19;;;;;;;8.35;3.75;;;;;;;12.36;100.00;101243.59;4906552;29;20048;-80
2023/07/22 01:42:47;;;;;;;8.75;4.25;;;;;;;12.32;100.00;101245.34;4900502;29;20424;-81
2023/07/22 01:45:15;;;;;;;7.68;4.40;;;;;;;12.32;100.00;101252.41;4874459;29;20059;-81
2023/07/22 01:47:42;;;;;;;6.80;3.83;;;;;;;12.32;100.00;101244.47;4895517;29;20056;-80
2023/07/22 01:50:10;;;;;;;6.38;3.92;;;;;;;12.31;100.00;101238.31;4848127;29;20056;-80
2023/07/22 01:52:37;;;;;;;8.20;3.58;;;;;;;12.31;100.00;101238.31;4862845;29;20470;-82
2023/07/22 01:55:06;;;;;;;7.32;4.18;;;;;;;12.31;100.00;101243.59;4887282;29;20044;-82
2023/07/22 01:57:34;;;;;;;8.38;3.72;;;;;;;12.32;100.00;101250.63;4894215;29;20040;-80
2023/07/22 02:00:05;;;;;;;6.55;4.50;;;;;;;12.31;100.00;101246.25;4871510;29;20064;-81
2023/07/22 02:02:41;;;;;;;5.40;3.90;;;;;;;12.30;100.00;101244.47;4888743;29;20531;-82
2023/07/22 02:05:10;;;;;;;7.28;3.85;;;;;;;12.28;100.00;101240.94;4898514;29;20063;-80
2023/07/22 02:07:39;;;;;;;10.88;4.40;;;;;;;12.26;100.00;101240.06;4865738;29;20302;-80
2023/07/22 02:10:08;;;;;;;11.45;5.00;;;;;;;12.21;100.00;101247.09;4890895;29;20052;-80
2023/07/22 02:12:36;;;;;;;7.75;5.13;;;;;;;12.19;100.00;101243.56;4876835;29;20057;-80
2023/07/22 02:15:04;;;;;;;9.02;4.60;;;;;;;12.17;100.00;101242.69;4876135;29;20539;-78
2023/07/22 02:17:31;;;;;;;6.63;5.03;;;;;;;12.15;100.00;101247.06;4878502;29;20048;-80
2023/07/22 02:19:59;;;;;;;7.22;4.30;;;;;;;12.14;100.00;101243.56;4875733;29;20064;-80
2023/07/22 02:22:26;;;;;;;9.32;5.47;;;;;;;12.13;100.00;101254.13;4848558;29;20049;-81
2023/07/22 02:24:55;;;;;;;7.47;4.82;;;;;;;12.12;100.00;101247.06;4880091;29;20061;-79
2023/07/22 02:27:54;;;;;;;9.18;5.47;;;;;;;12.10;100.00;101249.72;4894704;29;20048;-82
2023/07/22 02:30:21;;;;;;;9.70;4.80;;;;;;;12.08;100.00;101244.44;4891742;29;20052;-79
2023/07/22 02:32:49;;;;;;;10.70;5.60;;;;;;;12.08;100.00;101252.34;4871066;29;20420;-82
2023/07/22 02:35:16;;;;;;;9.07;5.03;;;;;;;12.07;100.00;101242.66;4886582;29;20428;-82
2023/07/22 02:37:43;;;;;;;11.15;4.85;;;;;;;12.08;100.00;101246.19;4860074;29;20052;-81
2023/07/22 02:40:12;;;;;;;9.77;4.65;;;;;;;12.07;100.00;101237.38;4868690;29;20060;-81
2023/07/22 02:42:40;;;;;;;13.73;4.93;;;;;;;12.05;100.00;101241.75;4892056;29;20053;-79
2023/07/22 02:45:08;;;;;;;9.45;5.18;;;;;;;12.03;100.00;101238.25;4877724;29;20059;-80
2023/07/22 02:47:36;;;;;;;8.00;5.25;;;;;;;12.03;100.00;101242.66;4874997;29;20064;-80
2023/07/22 02:50:04;;;;;;;5.32;4.68;;;;;;;12.03;100.00;101245.28;4875579;29;20116;-79
2023/07/22 02:52:32;;;;;;;10.88;4.65;;;;;;;12.03;100.00;101245.28;4878596;29;20094;-82
2023/07/22 02:55:12;;;;;;;7.70;4.80;;;;;;;12.01;100.00;101241.75;4841318;29;23381;-79
2023/07/22 02:57:41;;;;;;;10.05;5.63;;;;;;;12.00;100.00;101251.44;4892546;29;20052;-81
2023/07/22 03:00:23;;;;;;;9.18;5.57;;;;;;;11.96;100.00;101241.72;4874301;29;20045;-80
2023/07/22 03:02:52;;;;;;;7.10;5.35;;;;;;;11.94;100.00;101253.16;4875623;29;20049;-81
2023/07/22 03:05:21;;;;;;;8.73;4.88;;;;;;;11.91;100.00;101254.06;4893920;29;20053;-80
2023/07/22 03:07:48;;;;;;;11.18;4.65;;;;;;;11.92;100.00;101255.78;4852906;29;20061;-81
2023/07/22 03:10:17;;;;;;;10.75;5.50;;;;;;;11.89;100.00;101250.50;4846170;29;20427;-81
2023/07/22 03:12:45;;;;;;;9.05;5.30;;;;;;;11.88;100.00;101259.28;4855532;29;20053;-81
2023/07/22 03:15:13;;;;;;;11.88;4.95;;;;;;;11.83;100.00;101261.91;4891510;29;20047;-81
2023/07/22 03:17:43;;;;;;;9.93;4.82;;;;;;;11.82;100.00;101257.50;4871010;29;20045;-80
2023/07/22 03:20:14;;;;;;;9.05;4.47;;;;;;;11.81;100.00;101261.00;4872801;29;20048;-81
2023/07/22 03:22:45;;;;;;;9.93;5.15;;;;;;;11.79;100.00;101261.88;4875405;29;20056;-81
2023/07/22 03:25:16;;;;;;;10.68;4.68;;;;;;;11.77;100.00;101268.91;4874132;29;20052;-80
2023/07/22 03:27:45;;;;;;;10.45;4.53;;;;;;;11.76;100.00;101262.75;4887467;29;20059;-80
2023/07/22 03:30:15;;;;;;;7.75;4.15;;;;;;;11.76;100.00;101259.19;4875408;29;20048;-80
2023/07/22 03:32:44;;;;;;;7.88;4.20;;;;;;;11.77;100.00;101248.66;4898566;29;20063;-80
2023/07/22 03:35:11;;;;;;;8.18;5.13;;;;;;;11.77;100.00;101258.34;4874971;29;20056;-80
2023/07/22 03:37:40;;;;;;;12.77;4.60;;;;;;;11.75;100.00;101257.44;4886267;29;20055;-79
2023/07/22 03:40:42;;;;;;;9.23;4.68;;;;;;;11.76;100.00;101259.19;4855460;29;20053;-80
2023/07/22 03:43:02;;;;;;;10.85;6.93;;;;;;;11.78;100.00;101254.84;4875670;29;20059;-80
2023/07/22 03:45:29;;;;;;;7.28;4.90;;;;;;;11.78;100.00;101260.13;4881388;29;20059;-80
2023/07/22 03:47:58;;;;;;;9.10;5.18;;;;;;;11.78;100.00;101261.00;4883977;29;20455;-80
2023/07/22 03:50:27;;;;;;;10.40;4.75;;;;;;;11.79;100.00;101257.47;4867657;29;20463;-80
2023/07/22 03:52:55;;;;;;;11.65;4.40;;;;;;;11.79;100.00;101252.19;4905821;29;20048;-80
2023/07/22 03:55:25;;;;;;;7.05;4.18;;;;;;;11.80;100.00;101253.09;4846011;29;20521;-80
2023/07/22 03:57:54;;;;;;;5.97;3.83;;;;;;;11.82;100.00;101252.22;4870516;29;20057;-80
2023/07/22 04:00:21;;;;;;;5.97;3.95;;;;;;;11.84;100.00;101261.00;4880197;29;20519;-80
2023/07/22 04:02:50;;;;;;;13.63;5.30;;;;;;;11.87;100.00;101261.03;4883626;29;20099;-80
2023/07/22 04:05:18;;;;;;;10.70;4.55;;;;;;;11.91;100.00;101264.63;4878842;29;20056;-80
2023/07/22 04:07:45;;;;;;;9.57;4.20;;;;;;;11.95;100.00;101261.09;4883076;29;20527;-80
2023/07/22 04:10:13;;;;;;;7.57;4.53;;;;;;;11.97;100.00;101264.63;4846315;29;20909;-80
2023/07/22 04:12:41;;;;;;;7.72;3.92;;;;;;;11.99;100.00;101265.53;4881107;29;20057;-81
2023/07/22 04:15:09;;;;;;;7.60;4.53;;;;;;;12.05;100.00;101260.25;4890465;29;20056;-80
2023/07/22 04:17:38;;;;;;;9.25;4.47;;;;;;;12.12;100.00;101268.19;4884045;29;20049;-81
2023/07/22 04:20:08;;;;;;;8.43;4.18;;;;;;;12.19;100.00;101268.25;4860146;29;20424;-79
2023/07/22 04:22:36;;;;;;;10.05;4.50;;;;;;;12.43;100.00;101267.41;4893035;29;20060;-80
2023/07/22 04:25:04;;;;;;;6.00;3.85;;;;;;;12.81;100.00;101260.41;4842995;29;20056;-80
2023/07/22 04:27:32;;;;;;;10.48;3.95;;;;;;;13.06;100.00;101261.28;4879797;29;20061;-81
2023/07/22 04:29:59;;;;;;;6.95;3.60;;;;;;;13.48;100.00;101261.28;4873326;29;20050;-80
2023/07/22 04:32:27;;;;;;;9.82;4.22;;;;;;;13.93;100.00;101254.97;4868352;29;20059;-81
2023/07/22 04:34:56;;;;;;;8.45;3.95;;;;;;;14.20;100.00;101247.78;4847142;29;20150;-81
2023/07/22 04:37:23;;;;;;;5.15;3.78;;;;;;;14.26;100.00;101252.16;4890174;29;20522;-81
2023/07/22 04:39:51;;;;;;;5.97;3.55;;;;;;;14.28;100.00;101253.91;4837304;29;20548;-81
2023/07/22 04:42:18;;;;;;;5.13;3.58;;;;;;;14.26;100.00;101247.72;4889070;29;20063;-81
2023/07/22 04:44:46;;;;;;;7.75;3.35;;;;;;;14.28;100.00;101250.38;4899939;29;20164;-81
2023/07/22 04:47:14;;;;;;;5.53;3.58;;;;;;;14.28;100.00;101253.03;4861428;29;20924;-81
2023/07/22 04:49:41;;;;;;;5.65;3.70;;;;;;;14.43;100.00;101245.84;4893633;29;20052;-80
2023/07/22 04:52:08;;;;;;;4.03;3.45;;;;;;;15.01;100.00;101247.22;4911149;29;20403;-80
2023/07/22 04:54:38;;;;;;;5.57;3.90;;;;;;;15.70;100.00;101250.94;4889811;29;20067;-81
2023/07/22 04:57:06;;;;;;;7.18;3.70;;;;;;;16.23;100.00;101240.56;4883998;29;20058;-80
2023/07/22 04:59:33;;;;;;;6.78;3.70;;;;;;;16.70;100.00;101251.41;4900143;29;20051;-80
2023/07/22 05:02:05;;;;;;;;;;;;;;;16.92;100.00;101241.34;4909408;29;20052;-80
2023/07/22 05:04:33;;;;;;;5.40;3.13;;;;;;;16.94;100.00;101239.53;4930142;29;19924;-80
2023/07/22 05:07:06;;;;;;;4.63;3.40;;;;;;;16.77;100.00;101245.09;4894148;29;20060;-80
2023/07/22 05:09:33;;;;;;;6.90;3.47;;;;;;;16.54;100.00;101246.31;4894755;29;20051;-80
2023/07/22 05:12:01;;;;;;;5.82;3.08;;;;;;;16.31;100.00;101248.44;4859712;29;20060;-79
2023/07/22 05:14:28;;;;;;;5.47;3.28;;;;;;;16.08;100.00;101248.75;4887324;29;20405;-80
2023/07/22 05:16:56;;;;;;;7.30;3.50;;;;;;;15.89;100.00;101245.44;4861456;29;20096;-80
2023/07/22 05:19:23;;;;;;;7.25;3.85;;;;;;;15.73;100.00;101255.38;4873843;29;20083;-79
2023/07/22 05:21:51;;;;;;;7.53;2.92;;;;;;;15.58;100.00;101253.75;4900753;29;20410;-78
2023/07/22 05:24:18;;;;;;;9.43;3.03;;;;;;;15.45;100.00;101252.13;4882503;29;20060;-79
2023/07/22 05:26:46;;;;;;;6.80;3.50;;;;;;;15.34;100.00;101245.13;4866200;29;20535;-79
2023/07/22 05:29:33;;;;;;;5.38;3.10;;;;;;;15.19;100.00;101256.78;4875420;29;20091;-79
2023/07/22 05:32:00;;;;;;;5.47;3.28;;;;;;;15.06;100.00;101256.91;4874339;29;20056;-80
2023/07/22 05:34:28;;;;;;;6.65;3.33;;;;;;;14.95;100.00;101249.03;4881701;29;20055;-79
2023/07/22 05:36:56;;;;;;;3.85;3.17;;;;;;;14.86;100.00;101252.66;4873665;29;21377;-80
2023/07/22 05:39:23;;;;;;;7.05;3.20;;;;;;;14.80;100.00;101256.25;4893920;29;20556;-80
2023/07/22 05:41:51;;;;;;;6.93;3.42;;;;;;;14.74;100.00;101253.63;4877299;29;20067;-79
2023/07/22 05:44:18;;;;;;;6.90;3.42;;;;;;;14.70;100.00;101251.00;4864115;29;20056;-79
2023/07/22 05:46:46;;;;;;;4.88;3.67;;;;;;;14.65;100.00;101248.41;4875067;29;20060;-79
2023/07/22 05:49:13;;;;;;;8.75;3.60;;;;;;;14.77;100.00;101256.25;4854264;29;20064;-79
2023/07/22 05:51:40;;;;;;;6.40;3.60;;;;;;;15.11;100.00;101253.31;4865970;29;20064;-80
2023/07/22 05:54:08;;;;;;;3.92;3.53;;;;;;;15.46;100.00;101248.56;4891136;29;20045;-79
2023/07/22 05:56:36;;;;;;;6.32;3.42;;;;;;;15.85;100.00;101257.88;4882686;29;20053;-79
2023/07/22 05:59:04;;;;;;;8.77;3.95;;;;;;;16.29;100.00;101250.22;4862502;29;20966;-79
2023/07/22 06:01:31;;;;;;;7.32;4.18;;;;;;;16.72;100.00;101255.78;4863293;29;20056;-79
2023/07/22 06:03:59;;;;;;;7.15;3.25;;;;;;;17.12;100.00;101249.81;4885692;29;20061;-79
2023/07/22 06:06:27;;;;;;;4.25;3.33;;;;;;;17.52;100.00;101251.78;4877440;29;20048;-79
2023/07/22 06:08:55;;;;;;;4.68;3.45;;;;;;;17.81;100.00;101258.31;4867850;29;20056;-79
2023/07/22 06:11:23;;;;;;;3.63;3.33;;;;;;;18.03;100.00;101255.22;4867206;29;20045;-79
2023/07/22 06:13:51;;;;;;;4.20;3.38;;;;;;;18.02;100.00;101259.69;4870479;29;20057;-78
2023/07/22 06:16:18;;;;;;;8.13;3.90;;;;;;;18.05;100.00;101259.63;4867982;29;20071;-81
2023/07/22 06:18:46;;;;;;;5.63;3.90;;;;;;;18.02;100.00;101256.16;4876528;29;20053;-78
2023/07/22 06:21:14;;;;;;;9.80;3.60;;;;;;;18.00;100.00;101252.66;4881488;29;20057;-79
2023/07/22 06:23:42;;;;;;;5.78;3.75;;;;;;;17.93;100.00;101254.53;4870187;29;20060;-79
2023/07/22 06:26:10;;;;;;;5.45;4.00;;;;;;;17.88;100.00;101248.44;4890022;29;20049;-78
2023/07/22 06:28:38;;;;;;;4.32;3.67;;;;;;;17.86;100.00;101252.91;4869182;29;20497;-79
2023/07/22 06:31:06;;;;;;;6.18;3.95;;;;;;;17.85;100.00;101257.38;4845279;29;20056;-79
2023/07/22 06:33:35;;;;;;;4.75;4.07;;;;;;;17.82;100.00;101262.72;4889920;29;20052;-79
2023/07/22 06:36:03;;;;;;;5.32;3.92;;;;;;;17.70;100.00;101263.84;4884291;29;20044;-80
2023/07/22 06:38:32;;;;;;;7.93;4.78;;;;;;;17.60;100.00;101258.72;4858519;29;20420;-80
2023/07/22 06:40:59;;;;;;;5.43;4.43;;;;;;;17.60;100.00;101248.06;4871023;29;20401;-79
2023/07/22 06:43:27;;;;;;;7.93;5.10;;;;;;;17.61;100.00;101256.03;4885018;29;20048;-80
2023/07/22 06:45:55;;;;;;;9.75;5.93;;;;;;;17.64;100.00;101263.13;4868520;29;20076;-81
2023/07/22 06:48:22;;;;;;;8.27;5.03;;;;;;;17.59;100.00;101257.84;4851744;29;20449;-81
2023/07/22 06:50:50;;;;;;;6.80;4.80;;;;;;;17.60;100.00;101256.06;4855225;29;20056;-79
2023/07/22 06:53:17;;;;;;;6.15;4.55;;;;;;;17.62;100.00;101249.81;4853607;29;20045;-79
2023/07/22 06:55:54;;;;;;;10.48;4.95;;;;;;;17.66;100.00;101248.84;4854381;29;20061;-80
2023/07/22 06:58:24;;;;;;;7.53;5.22;;;;;;;17.74;100.00;101251.34;4882443;29;20076;-80
2023/07/22 07:00:55;;;;;;;6.55;4.35;;;;;;;17.79;100.00;101245.91;4870012;29;20420;-80
2023/07/22 07:03:23;;;;;;;8.10;5.32;;;;;;;17.83;100.00;101243.16;4846586;29;20053;-80
2023/07/22 07:05:55;;;;;;;8.40;5.32;;;;;;;17.77;100.00;101247.72;4877357;29;20087;-80
2023/07/22 07:08:23;;;;;;;7.93;5.70;;;;;;;17.68;100.00;101254.16;4873491;29;20143;-80
2023/07/22 07:10:51;;;;;;;8.93;5.28;;;;;;;17.71;100.00;101252.28;4894027;29;20504;-80
2023/07/22 07:13:18;;;;;;;7.25;5.20;;;;;;;17.83;100.00;101252.97;4865047;29;20063;-81
2023/07/22 07:15:50;;;;;;;9.18;5.95;;;;;;;17.92;100.00;101247.47;4862522;29;20056;-79
2023/07/22 07:18:18;;;;;;;8.05;5.93;;;;;;;17.97;100.00;101248.22;4851445;29;20048;-80
2023/07/22 07:20:46;;;;;;;7.28;5.38;;;;;;;18.06;100.00;101249.84;4877900;29;20393;-81
2023/07/22 07:23:15;;;;;;;8.77;6.13;;;;;;;18.03;100.00;101244.56;4895906;29;20052;-80
2023/07/22 07:25:44;;;;;;;6.65;5.30;;;;;;;17.98;100.00;101250.00;4885940;29;20048;-80
2023/07/22 07:28:13;;;;;;;8.93;5.93;;;;;;;17.99;100.00;101246.41;4873474;29;20056;-80
2023/07/22 07:30:40;;;;;;;7.47;5.55;;;;;;;18.05;100.00;101248.06;4868328;29;20048;-80
2023/07/22 07:33:08;;;;;;;9.50;5.60;;;;;;;18.03;100.00;101250.75;4857301;29;20063;-80
2023/07/22 07:35:35;;;;;;;10.35;6.25;;;;;;;17.93;100.00;101255.41;4856305;29;20068;-81
2023/07/22 07:38:03;;;;;;;10.23;5.90;;;;;;;17.92;100.00;101263.47;4885681;29;20055;-80
2023/07/22 07:40:31;;;;;;;6.82;5.82;;;;;;;17.85;100.00;101254.72;4887267;29;20052;-80
2023/07/22 07:42:59;;;;;;;7.65;6.22;;;;;;;17.82;100.00;101256.53;4870961;29;20048;-80
2023/07/22 07:45:26;;;;;;;11.90;6.53;;;;;;;17.83;100.00;101261.81;4877321;29;20060;-80
2023/07/22 07:47:55;;;;;;;9.73;6.78;;;;;;;17.72;100.00;101251.38;4863040;29;20179;-80
2023/07/22 07:50:22;;;;;;;7.72;5.82;;;;;;;17.75;100.00;101250.47;4838607;29;20045;-79
2023/07/22 07:52:50;;;;;;;10.18;6.32;;;;;;;17.81;100.00;101250.31;4848576;29;20052;-81
2023/07/22 07:55:19;;;;;;;7.40;6.13;;;;;;;17.85;100.00;101253.84;4862059;29;20059;-80
2023/07/22 07:57:46;;;;;;;8.05;5.78;;;;;;;17.87;100.00;101255.56;4889087;29;20818;-80
2023/07/22 08:00:14;;;;;;;8.68;6.28;;;;;;;17.91;100.00;101243.91;4891795;29;20056;-81
2023/07/22 08:02:43;;;;;;;8.55;6.07;;;;;;;17.99;100.00;101241.06;4884443;29;20056;-79
2023/07/22 08:05:12;;;;;;;9.18;6.10;;;;;;;18.01;100.00;101247.25;4839849;29;20061;-80
2023/07/22 08:07:41;;;;;;;9.18;6.45;;;;;;;17.99;100.00;101251.75;4869102;29;20056;-79
2023/07/22 08:10:09;;;;;;;9.32;5.85;;;;;;;17.99;100.00;101241.06;4876120;29;20057;-79
2023/07/22 08:12:37;;;;;;;10.88;7.57;;;;;;;18.02;100.00;101248.16;4873135;29;20548;-80
2023/07/22 08:15:06;;;;;;;11.98;6.45;;;;;;;18.02;100.00;101243.69;4894382;29;20052;-80
2023/07/22 08:17:33;;;;;;;10.23;6.75;;;;;;;18.02;100.00;101243.69;4866432;29;20606;-82
2023/07/22 08:20:00;;;;;;;10.55;6.97;;;;;;;18.12;100.00;101247.03;4850526;29;20071;-79
2023/07/22 08:22:29;;;;;;;8.82;5.88;;;;;;;18.24;100.00;101254.78;4876367;29;20056;-81
2023/07/22 08:24:57;;;;;;;11.75;6.50;;;;;;;18.29;100.00;101252.88;4864542;29;20060;-81
2023/07/22 08:27:25;;;;;;;9.00;6.82;;;;;;;18.17;100.00;101253.16;4870080;29;20075;-80
2023/07/22 08:29:54;;;;;;;8.85;6.43;;;;;;;18.06;100.00;101250.72;4845342;29;20052;-79
2023/07/22 08:32:21;;;;;;;8.13;6.70;;;;;;;18.06;100.00;101249.84;4854616;29;20065;-80
2023/07/22 08:34:48;;;;;;;10.18;6.90;;;;;;;18.13;100.00;101240.81;4866559;29;20053;-82
2023/07/22 08:37:16;;;;;;;9.30;6.20;;;;;;;18.23;100.00;101246.81;4837782;29;20524;-81
2023/07/22 08:39:43;;;;;;;11.30;7.20;;;;;;;18.31;100.00;101245.69;4863942;29;20056;-81
2023/07/22 08:42:13;;;;;;;8.40;6.10;;;;;;;18.36;100.00;101236.75;4842636;29;20060;-81
2023/07/22 08:44:43;;;;;;;8.82;6.28;;;;;;;18.36;100.00;101242.94;4876015;29;20060;-80
2023/07/22 08:47:15;;;;;;;8.80;5.97;;;;;;;18.45;100.00;101240.06;4904222;29;20516;-81
2023/07/22 08:49:50;;;;;;;10.40;7.28;;;;;;;18.49;100.00;101244.41;4863674;29;20044;-83
2023/07/22 08:52:18;;;;;;;11.50;6.80;;;;;;;18.49;100.00;101239.06;4854393;29;20527;-81
2023/07/22 08:54:48;;;;;;;13.35;6.28;;;;;;;18.54;100.00;101241.63;4893872;29;20057;-82
2023/07/22 08:57:17;;;;;;;10.60;6.65;;;;;;;18.59;100.00;101245.06;4884578;29;20420;-80
2023/07/22 08:59:45;;;;;;;8.18;6.40;;;;;;;18.58;100.00;101245.09;4867793;29;20063;-81
2023/07/22 09:02:14;;;;;;;6.28;5.55;;;;;;;18.51;100.00;101249.72;4870473;29;20052;-83
2023/07/22 09:04:42;;;;;;;7.95;5.15;;;;;;;18.41;100.00;101246.41;4895349;29;20057;-80
2023/07/22 09:07:12;;;;;;;7.75;5.18;;;;;;;18.29;100.00;101242.19;4816927;29;20045;-81
2023/07/22 09:09:41;;;;;;;8.50;4.80;;;;;;;18.20;100.00;101230.84;4873454;29;20064;-81
2023/07/22 09:12:08;;;;;;;7.45;5.20;;;;;;;18.09;100.00;101237.31;4893493;29;20052;-80
2023/07/22 09:14:40;;;;;;;7.60;5.65;;;;;;;18.08;100.00;101243.56;4887280;29;20048;-81
2023/07/22 09:17:08;;;;;;;7.55;4.93;;;;;;;18.11;100.00;101231.97;4864449;29;20052;-79
2023/07/22 09:19:35;;;;;;;7.03;5.25;;;;;;;18.07;100.00;101243.56;4872837;29;20052;-80
2023/07/22 09:22:04;;;;;;;8.65;5.43;;;;;;;18.06;100.00;101232.03;4840171;29;20049;-80
2023/07/22 09:24:32;;;;;;;6.50;5.03;;;;;;;18.15;100.00;101238.97;4888602;29;20551;-81
2023/07/22 09:27:01;;;;;;;7.25;5.20;;;;;;;18.35;100.00;101229.63;4879783;29;20057;-80
2023/07/22 09:29:40;;;;;;;7.03;4.70;;;;;;;18.60;100.00;101235.25;4891410;29;20523;-80
2023/07/22 09:32:07;;;;;;;7.05;4.85;;;;;;;18.86;100.00;101230.19;4875507;29;20045;-80
2023/07/22 09:34:35;;;;;;;7.13;5.00;;;;;;;18.97;100.00;101229.94;4843266;29;20045;-80
2023/07/22 09:37:03;;;;;;;5.47;4.30;;;;;;;18.98;100.00;101231.69;4865496;29;20052;-80
2023/07/22 09:39:31;;;;;;;4.05;3.65;;;;;;;18.93;100.00;101228.25;4854059;29;20052;-80
2023/07/22 09:42:01;;;;;;;6.72;3.95;;;;;;;18.82;100.00;101228.53;4876033;29;20041;-80
2023/07/22 09:44:32;;;;;;;4.20;3.70;;;;;;;18.70;100.00;101221.66;4874496;29;20045;-80
2023/07/22 09:47:06;;;;;;;4.93;3.78;;;;;;;18.55;100.00;101224.72;4867479;29;20071;-81
2023/07/22 09:49:40;;;;;;;4.82;3.40;;;;;;;18.41;100.00;101225.06;4844972;29;20554;-80
2023/07/22 09:52:12;;;;;;;4.65;3.95;;;;;;;18.25;100.00;101227.19;4852327;29;20072;-80
2023/07/22 09:54:48;;;;;;;5.43;4.10;;;;;;;18.09;100.00;101223.09;4858675;29;20051;-80
2023/07/22 09:57:18;;;;;;;4.78;4.10;;;;;;;17.96;100.00;101224.25;4873084;29;20056;-81
2023/07/22 09:59:48;;;;;;;5.53;3.10;;;;;;;17.86;100.00;101226.25;4860538;29;20059;-81
2023/07/22 10:02:19;;;;;;;3.58;2.97;;;;;;;17.71;100.00;101227.41;4872636;29;20045;-81
2023/07/22 10:04:48;;;;;;;4.82;3.33;;;;;;;17.56;100.00;101225.06;4885432;29;20056;-80
2023/07/22 10:07:18;;;;;;;3.90;2.70;;;;;;;17.43;100.00;101222.66;4851340;29;20060;-80
2023/07/22 10:09:46;;;;;;;3.20;2.90;;;;;;;17.36;100.00;101225.47;4872998;29;20544;-79
2023/07/22 10:12:15;;;;;;;3.63;3.30;;;;;;;17.32;100.00;101237.97;4876410;29;20049;-80
2023/07/22 10:14:45;;;;;;;6.60;4.57;;;;;;;17.25;100.00;101244.28;4895150;29;20048;-80
2023/07/22 10:17:13;;;;;;;6.90;5.03;;;;;;;17.17;100.00;101247.09;4853301;29;20051;-80
2023/07/22 10:19:41;;;;;;;11.68;5.03;;;;;;;17.07;100.00;101246.38;4855147;29;20055;-81
2023/07/22 10:22:11;;;;;;;7.47;5.47;;;;;;;16.98;100.00;101238.56;4862767;29;20424;-81
2023/07/22 10:24:40;;;;;;;6.65;5.30;;;;;;;16.91;100.00;101239.56;4845594;29;20060;-79
2023/07/22 10:27:08;;;;;;;8.63;5.55;;;;;;;16.89;100.00;101239.56;4886882;29;20056;-79
2023/07/22 10:29:37;;;;;;;8.90;5.50;;;;;;;16.92;100.00;101236.88;4888012;29;20574;-81
2023/07/22 10:32:05;;;;;;;7.60;5.72;;;;;;;16.93;100.00;101243.06;4861582;29;20064;-81
2023/07/22 10:34:34;;;;;;;7.78;5.60;;;;;;;16.95;100.00;101236.81;4850434;29;20063;-80
2023/07/22 10:37:04;;;;;;;7.88;5.35;;;;;;;17.00;100.00;101238.53;4871390;29;20427;-82
2023/07/22 10:39:32;;;;;;;9.88;6.35;;;;;;;16.99;100.00;101239.44;4835899;29;20060;-79
2023/07/22 10:42:04;;;;;;;7.60;6.10;;;;;;;17.02;100.00;101242.03;4873563;29;20047;-81
2023/07/22 10:44:37;;;;;;;10.50;6.55;;;;;;;17.03;100.00;101249.13;4883724;29;20048;-81
2023/07/22 10:47:07;;;;;;;8.05;5.80;;;;;;;17.01;100.00;101249.13;4890040;29;20057;-80
2023/07/22 10:49:47;;;;;;;11.30;6.90;;;;;;;17.02;100.00;101247.38;4864432;29;20073;-81
2023/07/22 10:52:14;;;;;;;12.80;6.22;;;;;;;17.01;100.00;101250.91;4882329;29;20386;-83
2023/07/22 10:54:42;;;;;;;9.90;6.60;;;;;;;17.06;100.00;101252.59;4860273;29;20052;-79
2023/07/22 10:57:16;;;;;;;8.65;6.70;;;;;;;17.08;100.00;101252.59;4858418;29;20056;-81
2023/07/22 10:59:51;;;;;;;9.00;6.45;;;;;;;17.05;100.00;101250.88;4906328;29;20053;-80
2023/07/22 11:02:29;;;;;;;10.25;7.15;;;;;;;17.04;100.00;101257.06;4895976;29;20052;-81
2023/07/22 11:05:05;;;;;;;13.68;7.22;;;;;;;17.03;100.00;101251.78;4890350;29;20507;-82
2023/07/22 11:07:42;;;;;;;9.80;6.72;;;;;;;16.99;100.00;101258.94;4885608;29;20043;-82
2023/07/22 11:10:18;;;;;;;10.95;6.70;;;;;;;16.97;100.00;101257.22;4886057;29;20048;-81
2023/07/22 11:12:48;;;;;;;10.80;6.97;;;;;;;16.92;100.00;101254.63;4865642;29;20063;-81
2023/07/22 11:15:17;;;;;;;11.10;7.68;;;;;;;16.89;100.00;101254.69;4890645;29;20769;-82
2023/07/22 11:17:46;;;;;;;11.30;8.48;;;;;;;16.86;100.00;101244.97;4873313;29;20056;-82
2023/07/22 11:20:14;;;;;;;8.82;6.35;;;;;;;16.85;100.00;101245.88;4881923;29;20045;-82
2023/07/22 11:22:41;;;;;;;11.50;7.13;;;;;;;16.86;100.00;101242.31;4890129;29;20818;-82
2023/07/22 11:25:17;;;;;;;18.35;7.70;;;;;;;16.84;100.00;101241.47;4882023;29;20064;-81